createdAt,value
2019-04-14T00:02:23.577Z,99.90
2019-04-14T00:04:53.199Z,99.90
2019-04-14T00:07:23.082Z,99.90
2019-04-14T00:09:52.514Z,99.90
2019-04-14T00:12:22.976Z,99.90
2019-04-14T00:14:53.402Z,99.90
2019-04-14T00:17:23.813Z,99.90
2019-04-14T00:19:54.399Z,99.90
2019-04-14T00:22:27.481Z,99.90
2019-04-14T00:24:55.353Z,99.90
2019-04-14T00:27:25.883Z,99.90
2019-04-14T00:29:55.336Z,99.90
2019-04-14T00:32:24.810Z,99.90
2019-04-14T00:35:12.445Z,99.90
2019-04-14T00:38:00.911Z,99.90
2019-04-14T00:40:36.718Z,99.90
2019-04-14T00:43:31.053Z,99.90
2019-04-14T00:46:05.842Z,99.90
2019-04-14T00:48:36.605Z,99.90
2019-04-14T00:51:06.926Z,99.90
2019-04-14T00:53:36.361Z,99.90
2019-04-14T00:56:06.177Z,99.90
2019-04-14T00:58:36.813Z,99.90
2019-04-14T01:01:06.929Z,99.90
2019-04-14T01:03:37.329Z,99.90
2019-04-14T01:06:07.644Z,99.90
2019-04-14T01:08:38.074Z,99.90
2019-04-14T01:11:07.510Z,99.90
2019-04-14T01:13:37.502Z,99.90
2019-04-14T01:16:12.010Z,99.90
2019-04-14T01:18:38.667Z,99.90
2019-04-14T01:21:08.922Z,99.90
2019-04-14T01:23:39.173Z,99.90
2019-04-14T01:26:09.310Z,99.90
2019-04-14T01:28:39.709Z,99.90
2019-04-14T01:31:09.844Z,99.90
2019-04-14T01:33:40.151Z,99.90
2019-04-14T01:36:10.492Z,99.90
2019-04-14T01:38:40.670Z,99.90
2019-04-14T01:41:10.657Z,99.90
2019-04-14T01:43:42.732Z,99.90
2019-04-14T01:46:19.678Z,99.90
2019-04-14T01:48:43.238Z,99.90
2019-04-14T01:51:37.641Z,99.90
2019-04-14T01:54:19.222Z,99.90
2019-04-14T01:57:13.691Z,99.90
2019-04-14T01:59:43.788Z,99.90
2019-04-14T02:02:18.425Z,99.90
2019-04-14T02:04:48.527Z,99.90
2019-04-14T02:07:19.019Z,99.90
2019-04-14T02:09:48.908Z,99.90
2019-04-14T02:12:19.206Z,99.90
2019-04-14T02:14:49.510Z,99.90
2019-04-14T02:17:19.849Z,99.90
2019-04-14T02:19:50.272Z,99.90
2019-04-14T02:22:20.278Z,99.90
2019-04-14T02:24:50.310Z,99.90
2019-04-14T02:27:20.932Z,99.90
2019-04-14T02:29:51.535Z,99.90
2019-04-14T02:32:54.914Z,99.90
2019-04-14T02:37:54.726Z,99.90
2019-04-14T02:43:04.247Z,99.90
2019-04-14T02:45:33.173Z,99.90
2019-04-14T02:53:01.625Z,99.90
2019-04-14T02:55:23.403Z,99.90
2019-04-14T02:58:04.165Z,99.90
2019-04-14T03:00:35.600Z,99.90
2019-04-14T03:03:06.270Z,99.90
2019-04-14T03:05:39.609Z,99.90
2019-04-14T03:07:59.932Z,99.90
2019-04-14T03:10:33.912Z,99.90
2019-04-14T03:13:05.722Z,99.90
2019-04-14T03:15:41.745Z,99.90
2019-04-14T03:18:33.895Z,99.90
2019-04-14T03:21:15.588Z,99.90
2019-04-14T03:26:51.804Z,99.90
2019-04-14T03:29:20.880Z,99.90
2019-04-14T03:39:31.918Z,99.90
2019-04-14T03:41:53.076Z,99.90
2019-04-14T03:44:28.667Z,99.90
2019-04-14T03:46:59.028Z,99.90
2019-04-14T03:49:31.797Z,99.90
2019-04-14T03:51:57.699Z,99.90
2019-04-14T03:54:25.803Z,99.90
2019-04-14T03:56:53.790Z,99.90
2019-04-14T03:59:24.043Z,99.90
2019-04-14T04:01:54.478Z,99.90
2019-04-14T04:04:25.016Z,99.90
2019-04-14T04:06:55.340Z,99.90
2019-04-14T04:09:32.089Z,99.90
2019-04-14T04:12:01.373Z,99.90
2019-04-14T04:14:31.341Z,99.90
2019-04-14T04:17:19.714Z,99.90
2019-04-14T04:20:26.485Z,99.90
2019-04-14T04:23:27.077Z,99.90
2019-04-14T04:26:12.599Z,99.90
2019-04-14T04:29:11.200Z,99.90
2019-04-14T04:31:58.936Z,99.90
2019-04-14T04:34:34.261Z,99.90
2019-04-14T04:37:34.880Z,99.90
2019-04-14T04:40:09.443Z,99.90
2019-04-14T04:42:39.491Z,99.90
2019-04-14T04:45:08.909Z,99.90
2019-04-14T04:47:38.467Z,99.90
2019-04-14T04:50:08.593Z,99.90
2019-04-14T04:52:38.605Z,99.90
2019-04-14T04:55:08.879Z,99.90
2019-04-14T04:57:39.520Z,99.90
2019-04-14T05:00:09.872Z,99.90
2019-04-14T05:02:39.562Z,99.90
2019-04-14T05:05:45.729Z,99.90
2019-04-14T05:08:15.369Z,99.90
2019-04-14T05:10:50.348Z,99.90
2019-04-14T05:13:24.657Z,99.90
2019-04-14T05:15:59.643Z,99.90
2019-04-14T05:18:29.673Z,99.90
2019-04-14T05:20:59.632Z,99.90
2019-04-14T05:23:29.945Z,99.90
2019-04-14T05:26:00.460Z,99.90
2019-04-14T05:28:30.983Z,99.90
2019-04-14T05:31:01.281Z,99.90
2019-04-14T05:33:31.487Z,99.90
2019-04-14T05:36:01.997Z,99.90
2019-04-14T05:38:33.724Z,99.90
2019-04-14T05:41:02.956Z,99.90
2019-04-14T05:43:40.559Z,99.90
2019-04-14T05:46:03.557Z,99.90
2019-04-14T05:48:33.758Z,99.90
2019-04-14T05:51:04.309Z,99.90
2019-04-14T05:53:35.019Z,99.90
2019-04-14T05:56:05.644Z,99.90
2019-04-14T05:58:36.073Z,99.90
2019-04-14T06:01:05.435Z,99.90
2019-04-14T06:03:34.664Z,99.90
2019-04-14T06:06:03.916Z,99.90
2019-04-14T06:08:33.122Z,99.90
2019-04-14T06:11:02.438Z,99.90
2019-04-14T06:13:31.701Z,99.90
2019-04-14T06:16:01.066Z,99.90
2019-04-14T06:18:30.610Z,99.90
2019-04-14T06:20:59.946Z,99.90
2019-04-14T06:23:29.243Z,99.90
2019-04-14T06:25:58.855Z,99.90
2019-04-14T06:28:28.157Z,99.90
2019-04-14T06:31:15.179Z,99.90
2019-04-14T06:34:06.483Z,99.90
2019-04-14T06:36:48.269Z,99.90
2019-04-14T06:39:21.122Z,99.90
2019-04-14T06:41:50.445Z,99.90
2019-04-14T06:44:19.693Z,99.90
2019-04-14T06:46:49.143Z,99.90
2019-04-14T06:49:18.417Z,99.90
2019-04-14T06:51:48.333Z,99.90
2019-04-14T06:54:17.944Z,99.90
2019-04-14T06:56:47.225Z,99.90
2019-04-14T06:59:16.457Z,99.90
2019-04-14T07:01:46.049Z,99.90
2019-04-14T07:04:15.307Z,99.90
2019-04-14T07:06:44.573Z,99.90
2019-04-14T07:09:13.843Z,99.90
2019-04-14T07:11:43.457Z,99.90
2019-04-14T07:14:17.329Z,99.90
2019-04-14T07:16:51.453Z,99.90
2019-04-14T07:19:22.132Z,99.90
2019-04-14T07:21:52.621Z,99.90
2019-04-14T07:24:29.320Z,99.90
2019-04-14T07:27:06.940Z,99.90
2019-04-14T07:29:47.734Z,99.90
2019-04-14T07:32:43.102Z,99.90
2019-04-14T07:35:32.932Z,99.90
2019-04-14T07:38:10.687Z,99.90
2019-04-14T07:41:14.245Z,99.90
2019-04-14T07:44:18.786Z,99.90
2019-04-14T07:47:05.629Z,99.90
2019-04-14T07:49:54.982Z,99.90
2019-04-14T07:52:48.210Z,99.90
2019-04-14T07:55:36.970Z,99.90
2019-04-14T07:58:36.788Z,99.90
2019-04-14T08:01:17.939Z,99.90
2019-04-14T08:04:25.105Z,99.90
2019-04-14T08:06:56.887Z,99.90
2019-04-14T08:09:26.482Z,99.90
2019-04-14T08:11:59.290Z,99.90
2019-04-14T08:14:29.085Z,99.90
2019-04-14T08:16:58.509Z,99.90
2019-04-14T08:19:27.790Z,99.90
2019-04-14T08:21:57.076Z,99.90
2019-04-14T08:24:26.416Z,99.90
2019-04-14T08:26:56.057Z,99.90
2019-04-14T08:29:25.769Z,99.90
2019-04-14T08:31:54.926Z,99.90
2019-04-14T08:34:24.485Z,99.90
2019-04-14T08:36:53.809Z,99.90
2019-04-14T08:39:23.102Z,99.90
2019-04-14T08:42:03.633Z,99.90
2019-04-14T08:44:43.054Z,99.90
2019-04-14T08:47:30.934Z,99.90
2019-04-14T08:50:05.249Z,99.90
2019-04-14T08:52:44.206Z,99.90
2019-04-14T08:55:33.959Z,99.90
2019-04-14T08:58:12.745Z,99.90
2019-04-14T09:01:01.002Z,99.90
2019-04-14T09:04:07.662Z,99.90
2019-04-14T09:06:43.869Z,99.90
2019-04-14T09:09:22.714Z,99.90
2019-04-14T09:12:14.908Z,99.90
2019-04-14T09:14:35.234Z,99.90
2019-04-14T09:17:04.581Z,99.90
2019-04-14T09:19:33.862Z,99.90
2019-04-14T09:22:03.206Z,99.90
2019-04-14T09:24:32.607Z,99.90
2019-04-14T09:27:01.871Z,99.90
2019-04-14T09:29:31.164Z,99.90
2019-04-14T09:32:00.673Z,99.90
2019-04-14T09:34:30.009Z,99.90
2019-04-14T09:36:59.310Z,99.90
2019-04-14T09:39:28.689Z,99.90
2019-04-14T09:41:58.590Z,99.90
2019-04-14T09:44:27.965Z,99.90
2019-04-14T09:46:57.485Z,99.90
2019-04-14T09:49:27.006Z,99.90
2019-04-14T09:51:56.351Z,99.90
2019-04-14T09:54:25.810Z,99.90
2019-04-14T09:56:55.770Z,99.90
2019-04-14T09:59:25.505Z,99.90
2019-04-14T10:01:55.008Z,99.90
2019-04-14T10:04:25.007Z,99.90
2019-04-14T10:06:54.307Z,99.90
2019-04-14T10:09:24.921Z,99.90
2019-04-14T10:11:56.427Z,99.90
2019-04-14T10:14:25.305Z,99.90
2019-04-14T10:16:55.031Z,99.90
2019-04-14T10:19:24.763Z,99.90
2019-04-14T10:21:55.019Z,99.90
2019-04-14T10:24:24.589Z,99.90
2019-04-14T10:26:54.909Z,99.90
2019-04-14T10:29:24.259Z,99.90
2019-04-14T10:31:53.493Z,99.90
2019-04-14T10:34:23.378Z,99.90
2019-04-14T10:36:52.802Z,99.90
2019-04-14T10:39:22.374Z,99.90
2019-04-14T10:41:51.890Z,99.90
2019-04-14T10:44:21.490Z,99.90
2019-04-14T10:46:50.753Z,99.90
2019-04-14T10:49:20.488Z,99.90
2019-04-14T10:51:49.873Z,99.90
2019-04-14T10:54:19.204Z,99.90
2019-04-14T10:56:51.574Z,99.90
2019-04-14T10:59:21.238Z,99.90
2019-04-14T11:01:51.006Z,99.90
2019-04-14T11:04:20.694Z,99.90
2019-04-14T11:07:05.958Z,99.90
2019-04-14T11:09:36.111Z,99.90
2019-04-14T11:12:05.437Z,99.90
2019-04-14T11:14:35.221Z,99.90
2019-04-14T11:17:04.584Z,99.90
2019-04-14T11:19:34.962Z,99.90
2019-04-14T11:22:04.260Z,99.90
2019-04-14T11:24:33.525Z,99.90
2019-04-14T11:27:03.348Z,99.90
2019-04-14T11:29:32.617Z,98.70
2019-04-14T11:32:23.646Z,99.90
2019-04-14T11:35:07.545Z,98.80
2019-04-14T11:37:55.158Z,94.20
2019-04-14T11:40:28.236Z,91.70
2019-04-14T11:42:57.965Z,89.90
2019-04-14T11:45:27.245Z,86.80
2019-04-14T11:47:56.525Z,83.00
2019-04-14T11:50:26.250Z,82.30
2019-04-14T11:52:55.539Z,84.90
2019-04-14T11:55:24.898Z,84.90
2019-04-14T11:57:54.882Z,78.90
2019-04-14T12:01:01.587Z,74.90
2019-04-14T12:03:40.367Z,75.90
2019-04-14T12:06:27.509Z,75.70
2019-04-14T12:09:15.321Z,71.50
2019-04-14T12:11:44.950Z,73.20
2019-04-14T12:14:14.221Z,73.00
2019-04-14T12:16:43.819Z,73.70
2019-04-14T12:19:13.444Z,74.50
2019-04-14T12:21:42.955Z,74.30
2019-04-14T12:24:12.237Z,74.60
2019-04-14T12:26:41.487Z,76.10
2019-04-14T12:29:11.778Z,79.30
2019-04-14T12:31:41.984Z,77.60
2019-04-14T12:34:11.702Z,76.10
2019-04-14T12:36:40.966Z,74.40
2019-04-14T12:39:17.999Z,73.60
2019-04-14T12:41:51.797Z,73.60
2019-04-14T12:44:39.010Z,73.30
2019-04-14T12:47:30.111Z,70.30
2019-04-14T12:50:00.186Z,74.00
2019-04-14T12:52:29.592Z,73.00
2019-04-14T12:54:59.434Z,70.10
2019-04-14T12:57:33.902Z,69.80
2019-04-14T13:00:03.938Z,70.90
2019-04-14T13:02:36.737Z,70.50
2019-04-14T13:05:06.241Z,69.90
2019-04-14T13:07:36.919Z,69.10
2019-04-14T13:10:08.011Z,69.50
2019-04-14T13:12:37.306Z,68.10
2019-04-14T13:15:07.348Z,70.00
2019-04-14T13:17:37.135Z,66.90
2019-04-14T13:20:07.959Z,67.70
2019-04-14T13:22:37.280Z,68.30
2019-04-14T13:25:07.941Z,71.60
2019-04-14T13:27:37.336Z,69.80
2019-04-14T13:30:08.775Z,69.70
2019-04-14T13:32:38.462Z,72.00
2019-04-14T13:35:08.142Z,73.30
2019-04-14T13:37:37.778Z,70.70
2019-04-14T13:40:07.280Z,67.00
2019-04-14T13:42:36.563Z,68.20
2019-04-14T13:45:06.327Z,66.30
2019-04-14T13:47:35.691Z,68.50
2019-04-14T13:50:05.822Z,70.10
2019-04-14T13:52:46.140Z,72.70
2019-04-14T13:55:06.625Z,75.10
2019-04-14T13:57:35.941Z,75.30
2019-04-14T14:00:07.351Z,75.60
2019-04-14T14:02:36.746Z,74.80
2019-04-14T14:05:06.398Z,74.40
2019-04-14T14:07:35.714Z,75.20
2019-04-14T14:10:06.931Z,75.50
2019-04-14T14:12:55.303Z,76.20
2019-04-14T14:15:46.651Z,76.30
2019-04-14T14:18:37.900Z,75.60
2019-04-14T14:21:26.515Z,75.60
2019-04-14T14:24:17.837Z,75.30
2019-04-14T14:26:50.075Z,75.00
2019-04-14T14:29:19.445Z,75.20
2019-04-14T14:31:48.840Z,76.50
2019-04-14T14:34:18.274Z,75.90
2019-04-14T14:36:52.855Z,75.80
2019-04-14T14:39:22.221Z,76.70
2019-04-14T14:41:53.640Z,76.80
2019-04-14T14:44:24.745Z,76.70
2019-04-14T14:47:09.052Z,76.90
2019-04-14T14:49:48.544Z,78.00
2019-04-14T14:52:19.490Z,77.40
2019-04-14T14:54:49.158Z,77.60
2019-04-14T14:57:18.971Z,77.30
2019-04-14T14:59:48.908Z,76.00
2019-04-14T15:02:18.215Z,76.00
2019-04-14T15:04:51.821Z,71.90
2019-04-14T15:07:22.858Z,70.50
2019-04-14T15:09:52.832Z,70.30
2019-04-14T15:12:22.206Z,70.60
2019-04-14T15:14:52.153Z,71.50
2019-04-14T15:17:21.761Z,72.70
2019-04-14T15:19:52.388Z,73.90
2019-04-14T15:22:21.698Z,74.40
2019-04-14T15:24:51.529Z,74.00
2019-04-14T15:27:20.827Z,74.50
2019-04-14T15:29:50.208Z,72.30
2019-04-14T15:32:20.125Z,70.60
2019-04-14T15:34:49.325Z,70.10
2019-04-14T15:37:19.026Z,73.20
2019-04-14T15:39:48.833Z,72.50
2019-04-14T15:42:18.445Z,72.60
2019-04-14T15:44:47.895Z,69.90
2019-04-14T15:47:17.575Z,66.00
2019-04-14T15:49:47.284Z,67.90
2019-04-14T15:52:16.541Z,67.20
2019-04-14T15:54:45.953Z,67.70
2019-04-14T15:57:38.058Z,71.50
2019-04-14T16:00:20.429Z,72.10
2019-04-14T16:02:57.418Z,73.30
2019-04-14T16:05:45.698Z,75.00
2019-04-14T16:08:25.293Z,73.60
2019-04-14T16:11:02.975Z,73.90
2019-04-14T16:13:54.834Z,71.80
2019-04-14T16:16:39.791Z,68.60
2019-04-14T16:19:35.020Z,69.00
2019-04-14T16:22:04.717Z,69.90
2019-04-14T16:24:34.472Z,73.10
2019-04-14T16:27:15.750Z,78.70
2019-04-14T16:30:04.429Z,82.20
2019-04-14T16:32:52.936Z,78.50
2019-04-14T16:35:25.715Z,73.50
2019-04-14T16:37:55.032Z,74.10
2019-04-14T16:40:24.589Z,78.70
2019-04-14T16:42:54.155Z,78.40
2019-04-14T16:45:23.488Z,76.50
2019-04-14T16:47:52.813Z,73.60
2019-04-14T16:50:22.608Z,73.50
2019-04-14T16:53:14.303Z,73.70
2019-04-14T16:55:52.177Z,72.90
2019-04-14T16:58:39.891Z,74.70
2019-04-14T17:01:14.908Z,77.10
2019-04-14T17:03:44.098Z,76.60
2019-04-14T17:06:13.437Z,79.20
2019-04-14T17:08:43.007Z,79.00
2019-04-14T17:11:12.831Z,79.00
2019-04-14T17:13:45.731Z,78.10
2019-04-14T17:16:43.266Z,77.20
2019-04-14T17:19:26.445Z,78.30
2019-04-14T17:22:08.653Z,80.20
2019-04-14T17:24:49.633Z,84.30
2019-04-14T17:27:23.456Z,87.50
2019-04-14T17:30:14.497Z,91.70
2019-04-14T17:33:01.613Z,93.50
2019-04-14T17:35:41.432Z,96.30
2019-04-14T17:38:27.298Z,98.20
2019-04-14T17:41:12.864Z,97.90
2019-04-14T17:43:53.467Z,98.50
2019-04-14T17:46:47.651Z,99.90
2019-04-14T17:49:35.937Z,99.90
2019-04-14T17:52:23.387Z,99.90
2019-04-14T17:55:11.894Z,99.90
2019-04-14T17:57:55.589Z,99.90
2019-04-14T18:00:44.571Z,99.90
2019-04-14T18:03:26.178Z,99.90
2019-04-14T18:05:58.848Z,99.90
2019-04-14T18:09:05.498Z,99.90
2019-04-14T18:11:52.276Z,99.90
2019-04-14T18:14:40.922Z,99.90
2019-04-14T18:17:17.962Z,99.90
2019-04-14T18:20:08.292Z,99.90
2019-04-14T18:22:38.227Z,99.90
2019-04-14T18:25:08.377Z,99.90
2019-04-14T18:27:48.720Z,99.90
2019-04-14T18:30:29.849Z,99.90
2019-04-14T18:33:08.919Z,99.90
2019-04-14T18:35:57.876Z,99.90
2019-04-14T18:38:42.708Z,99.90
2019-04-14T18:41:32.793Z,99.90
2019-04-14T18:44:19.013Z,99.90
2019-04-14T18:47:15.934Z,99.90
2019-04-14T18:50:04.781Z,99.90
2019-04-14T18:53:00.489Z,99.90
2019-04-14T18:55:52.711Z,99.90
2019-04-14T18:58:36.583Z,99.90
2019-04-14T19:01:21.259Z,99.90
2019-04-14T19:03:51.641Z,99.90
2019-04-14T19:06:21.833Z,99.90
2019-04-14T19:08:56.038Z,99.90
2019-04-14T19:11:43.880Z,99.90
2019-04-14T19:14:17.365Z,99.90
2019-04-14T19:16:50.558Z,99.90
2019-04-14T19:19:21.138Z,99.90
2019-04-14T19:21:52.980Z,99.90
2019-04-14T19:24:22.850Z,99.90
2019-04-14T19:26:52.546Z,99.90
2019-04-14T19:29:22.220Z,99.90
2019-04-14T19:31:51.552Z,99.90
2019-04-14T19:34:22.027Z,99.90
2019-04-14T19:36:51.736Z,99.90
2019-04-14T19:39:21.725Z,99.90
2019-04-14T19:41:53.257Z,99.90
2019-04-14T19:44:22.965Z,99.90
2019-04-14T19:46:52.320Z,99.90
2019-04-14T19:49:21.530Z,99.90
2019-04-14T19:51:51.232Z,99.90
2019-04-14T19:54:20.819Z,99.90
2019-04-14T19:56:51.447Z,99.90
2019-04-14T19:59:20.741Z,99.90
2019-04-14T20:01:50.766Z,99.90
2019-04-14T20:04:20.545Z,99.90
2019-04-14T20:06:49.834Z,99.90
2019-04-14T20:09:19.564Z,99.90
2019-04-14T20:11:48.769Z,99.90
2019-04-14T20:14:18.442Z,99.90
2019-04-14T20:16:56.919Z,99.90
2019-04-14T20:19:49.751Z,99.90
2019-04-14T20:22:49.951Z,99.90
2019-04-14T20:25:37.511Z,99.90
2019-04-14T20:28:16.956Z,99.90
2019-04-14T20:30:49.782Z,99.90
2019-04-14T20:33:19.287Z,99.90
2019-04-14T20:35:48.853Z,99.90
2019-04-14T20:38:18.300Z,99.90
2019-04-14T20:40:47.870Z,99.90
2019-04-14T20:43:18.198Z,99.90
2019-04-14T20:45:47.667Z,99.90
2019-04-14T20:48:17.367Z,99.90
2019-04-14T20:50:48.017Z,99.90
2019-04-14T20:53:17.535Z,99.90
2019-04-14T20:55:47.844Z,99.90
2019-04-14T20:58:17.573Z,99.90
2019-04-14T21:00:47.238Z,99.90
2019-04-14T21:03:35.769Z,99.90
2019-04-14T21:06:24.473Z,99.90
2019-04-14T21:09:20.495Z,99.90
2019-04-14T21:12:00.452Z,99.90
2019-04-14T21:14:51.930Z,99.90
2019-04-14T21:17:30.079Z,99.90
2019-04-14T21:20:21.403Z,99.90
2019-04-14T21:22:56.930Z,99.90
2019-04-14T21:26:00.832Z,99.90
2019-04-14T21:28:48.788Z,99.90
2019-04-14T21:31:27.000Z,99.90
2019-04-14T21:34:05.229Z,99.90
2019-04-14T21:36:41.167Z,99.90
2019-04-14T21:39:32.427Z,99.90
2019-04-14T21:42:01.707Z,99.90
2019-04-14T21:44:31.066Z,99.90
2019-04-14T21:47:00.748Z,99.90
2019-04-14T21:49:32.815Z,99.90
2019-04-14T21:52:13.787Z,99.90
2019-04-14T21:54:44.242Z,99.90
2019-04-14T21:57:35.658Z,99.90
2019-04-14T22:00:39.111Z,99.90
2019-04-14T22:03:35.337Z,99.90
2019-04-14T22:06:22.793Z,99.90
2019-04-14T22:08:53.569Z,99.90
2019-04-14T22:11:24.620Z,99.90
2019-04-14T22:13:53.931Z,99.90
2019-04-14T22:16:23.809Z,99.90
2019-04-14T22:18:53.753Z,99.90
2019-04-14T22:21:23.120Z,99.90
2019-04-14T22:24:01.300Z,99.90
2019-04-14T22:26:26.176Z,99.90
2019-04-14T22:28:55.510Z,99.90
2019-04-14T22:31:25.374Z,99.90
2019-04-14T22:33:54.731Z,99.90
2019-04-14T22:36:24.380Z,99.90
2019-04-14T22:38:53.843Z,99.90
2019-04-14T22:41:23.922Z,99.90
2019-04-14T22:43:53.535Z,99.90
2019-04-14T22:46:23.235Z,99.90
2019-04-14T22:48:53.011Z,99.90
2019-04-14T22:51:22.203Z,99.90
2019-04-14T22:54:11.209Z,99.90
2019-04-14T22:56:40.877Z,99.90
2019-04-14T22:59:10.137Z,99.90
2019-04-14T23:01:41.793Z,99.90
2019-04-14T23:04:25.524Z,99.90
2019-04-14T23:07:14.250Z,99.90
2019-04-14T23:09:47.718Z,99.90
2019-04-14T23:12:39.144Z,99.90
2019-04-14T23:15:26.796Z,99.90
2019-04-14T23:18:04.187Z,99.90
2019-04-14T23:20:58.567Z,99.90
2019-04-14T23:23:44.574Z,99.90
2019-04-14T23:26:14.385Z,99.90
2019-04-14T23:28:43.830Z,99.90
2019-04-14T23:31:13.120Z,99.90
2019-04-14T23:33:43.215Z,99.90
2019-04-14T23:36:12.808Z,99.90
2019-04-14T23:38:42.794Z,99.90
2019-04-14T23:41:12.754Z,99.90
2019-04-14T23:43:42.145Z,99.90
2019-04-14T23:46:11.334Z,99.90
2019-04-14T23:48:40.616Z,99.90
2019-04-14T23:51:09.925Z,99.90
2019-04-14T23:53:39.606Z,99.90
2019-04-14T23:56:09.368Z,99.90
2019-04-14T23:58:38.993Z,99.90
